LRCK - CONSTANTA / MIHAIL KOGALNICEANU-CONSTANTA

Compiled: 11:32:47 on 21/04/2018

Latest METAR/SPECI Reports

METAR LRCK 211130Z 33007KT 290V360 CAVOK 21/03 Q1019 NOSIG=

Previous reports

METAR LRCK 211100Z 29008KT 250V320 CAVOK 19/03 Q1020 NOSIG=
METAR LRCK 211030Z 28008KT 250V310 CAVOK 20/02 Q1020 NOSIG=
METAR LRCK 211000Z 30006KT 260V360 CAVOK 20/02 Q1020 NOSIG=
METAR LRCK 210930Z VRB03KT CAVOK 20/03 Q1020 NOSIG=

Latest TAF report

TAF LRCK 211100Z 2112/2212 30010KT CAVOK BECMG 2115/2117 22005KT BECMG 2122/2124 28011KT BECMG 2209/2211 VRB04KT=

Valid WARNINGS

No valid warnings for LRCK